createdAt,value
2019-03-20T00:02:24.847Z,70.67
2019-03-20T00:04:53.949Z,70.55
2019-03-20T00:07:23.100Z,70.60
2019-03-20T00:09:52.213Z,70.34
2019-03-20T00:12:21.373Z,70.34
2019-03-20T00:14:50.485Z,70.53
2019-03-20T00:17:19.655Z,70.55
2019-03-20T00:19:48.782Z,70.68
2019-03-20T00:22:17.909Z,70.65
2019-03-20T00:24:47.040Z,71.12
2019-03-20T00:27:16.170Z,71.12
2019-03-20T00:29:45.294Z,70.85
2019-03-20T00:32:14.435Z,70.93
2019-03-20T00:34:43.553Z,70.99
2019-03-20T00:37:12.696Z,71.30
2019-03-20T00:39:41.859Z,71.30
2019-03-20T00:42:10.959Z,71.39
2019-03-20T00:44:40.073Z,71.61
2019-03-20T00:47:09.311Z,71.79
2019-03-20T00:49:38.452Z,71.71
2019-03-20T00:52:07.641Z,72.13
2019-03-20T00:54:36.790Z,71.93
2019-03-20T00:57:05.942Z,71.87
2019-03-20T00:59:35.066Z,71.73
2019-03-20T01:02:04.228Z,71.79
2019-03-20T01:04:33.368Z,71.80
2019-03-20T01:07:02.482Z,71.76
2019-03-20T01:09:31.626Z,71.84
2019-03-20T01:12:00.869Z,71.92
2019-03-20T01:14:30.015Z,71.93
2019-03-20T01:16:59.245Z,72.14
2019-03-20T01:19:28.454Z,72.09
2019-03-20T01:21:57.617Z,71.93
2019-03-20T01:24:26.761Z,71.73
2019-03-20T01:26:55.863Z,72.00
2019-03-20T01:29:25.001Z,71.83
2019-03-20T01:31:54.131Z,71.90
2019-03-20T01:34:23.271Z,71.88
2019-03-20T01:36:52.389Z,71.93
2019-03-20T01:39:21.644Z,71.96
2019-03-20T01:41:50.754Z,72.09
2019-03-20T01:44:19.892Z,72.23
2019-03-20T01:46:49.106Z,72.30
2019-03-20T01:49:18.249Z,72.29
2019-03-20T01:51:47.412Z,72.24
2019-03-20T01:54:16.570Z,72.40
2019-03-20T01:56:45.685Z,72.26
2019-03-20T01:59:14.842Z,72.28
2019-03-20T02:01:44.138Z,72.43
2019-03-20T02:04:13.380Z,72.91
2019-03-20T02:06:42.511Z,73.10
2019-03-20T02:09:11.643Z,73.25
2019-03-20T02:11:40.767Z,73.19
2019-03-20T02:14:09.905Z,73.33
2019-03-20T02:16:39.041Z,73.22
2019-03-20T02:19:08.211Z,73.03
2019-03-20T02:21:37.357Z,72.97
2019-03-20T02:24:06.761Z,72.86
2019-03-20T02:26:35.925Z,72.82
2019-03-20T02:29:05.081Z,72.76
2019-03-20T02:31:34.196Z,72.89
2019-03-20T02:34:03.337Z,72.89
2019-03-20T02:36:32.494Z,72.89
2019-03-20T02:39:01.621Z,73.18
2019-03-20T02:41:30.760Z,73.14
2019-03-20T02:43:59.909Z,73.28
2019-03-20T02:46:29.184Z,73.33
2019-03-20T02:48:58.296Z,73.27
2019-03-20T02:51:27.436Z,73.37
2019-03-20T02:53:56.518Z,73.64
2019-03-20T02:56:25.672Z,73.92
2019-03-20T02:58:54.785Z,73.84
2019-03-20T03:01:23.904Z,73.69
2019-03-20T03:03:53.033Z,73.86
2019-03-20T03:06:22.183Z,73.51
2019-03-20T03:08:51.321Z,73.36
2019-03-20T03:11:20.536Z,73.28
2019-03-20T03:13:49.663Z,73.40
2019-03-20T03:16:18.832Z,73.48
2019-03-20T03:18:47.941Z,73.40
2019-03-20T03:21:17.197Z,73.39
2019-03-20T03:23:46.300Z,73.32
2019-03-20T03:26:15.432Z,73.47
2019-03-20T03:28:44.559Z,73.48
2019-03-20T03:31:13.850Z,73.68
2019-03-20T03:33:42.966Z,73.70
2019-03-20T03:36:21.190Z,73.76
2019-03-20T03:38:42.956Z,73.63
2019-03-20T03:41:13.522Z,73.83
2019-03-20T03:43:42.614Z,73.76
2019-03-20T03:46:11.773Z,73.80
2019-03-20T03:48:40.893Z,73.89
2019-03-20T03:51:11.336Z,73.92
2019-03-20T03:53:40.467Z,73.98
2019-03-20T03:56:09.621Z,74.16
2019-03-20T03:58:38.841Z,74.02
2019-03-20T04:01:07.987Z,74.09
2019-03-20T04:03:37.091Z,74.58
2019-03-20T04:06:06.266Z,74.35
2019-03-20T04:08:35.378Z,74.26
2019-03-20T04:11:04.520Z,74.17
2019-03-20T04:13:33.642Z,74.45
2019-03-20T04:16:02.752Z,74.59
2019-03-20T04:18:31.871Z,74.45
2019-03-20T04:21:00.998Z,74.33
2019-03-20T04:23:30.090Z,74.35
2019-03-20T04:25:59.231Z,74.25
2019-03-20T04:28:28.377Z,74.25
2019-03-20T04:30:57.515Z,74.19
2019-03-20T04:33:26.680Z,74.51
2019-03-20T04:35:55.809Z,74.58
2019-03-20T04:38:24.918Z,74.63
2019-03-20T04:40:54.073Z,74.80
2019-03-20T04:43:23.191Z,74.75
2019-03-20T04:45:52.360Z,75.03
2019-03-20T04:48:21.494Z,74.95
2019-03-20T04:50:50.619Z,74.98
2019-03-20T04:53:19.751Z,75.07
2019-03-20T04:55:48.885Z,74.98
2019-03-20T04:58:18.097Z,75.15
2019-03-20T05:00:47.260Z,75.04
2019-03-20T05:03:16.375Z,74.94
2019-03-20T05:05:45.542Z,75.14
2019-03-20T05:08:14.661Z,75.33
2019-03-20T05:10:43.782Z,74.93
2019-03-20T05:13:12.905Z,75.16
2019-03-20T05:15:42.034Z,75.16
2019-03-20T05:18:11.161Z,75.19
2019-03-20T05:20:40.309Z,75.28
2019-03-20T05:23:09.471Z,75.56
2019-03-20T05:25:38.603Z,75.89
2019-03-20T05:28:07.825Z,75.76
2019-03-20T05:30:36.982Z,76.07
2019-03-20T05:33:06.127Z,75.81
2019-03-20T05:35:35.272Z,75.77
2019-03-20T05:38:04.404Z,76.21
2019-03-20T05:40:33.542Z,76.05
2019-03-20T05:43:02.690Z,75.95
2019-03-20T05:45:31.835Z,75.75
2019-03-20T05:48:00.958Z,75.76
2019-03-20T05:50:30.080Z,75.67
2019-03-20T05:52:59.212Z,75.83
2019-03-20T05:55:28.365Z,75.80
2019-03-20T05:57:57.590Z,75.77
2019-03-20T06:00:29.665Z,75.54
2019-03-20T06:02:58.820Z,75.21
2019-03-20T06:05:27.972Z,75.04
2019-03-20T06:07:57.111Z,75.25
2019-03-20T06:10:26.249Z,75.16
2019-03-20T06:12:55.487Z,75.45
2019-03-20T06:15:24.767Z,76.09
2019-03-20T06:17:53.913Z,76.45
2019-03-20T06:20:23.041Z,76.75
2019-03-20T06:22:52.196Z,76.98
2019-03-20T06:25:21.739Z,76.44
2019-03-20T06:27:52.874Z,75.80
2019-03-20T06:30:21.839Z,75.13
2019-03-20T06:32:51.061Z,74.40
2019-03-20T06:35:20.377Z,73.98
2019-03-20T06:37:49.542Z,73.76
2019-03-20T06:40:18.733Z,73.90
2019-03-20T06:42:47.869Z,73.07
2019-03-20T06:45:16.992Z,71.28
2019-03-20T06:47:46.129Z,67.25
2019-03-20T06:50:15.609Z,60.25
2019-03-20T06:52:44.731Z,53.14
2019-03-20T06:55:13.848Z,47.89
2019-03-20T06:57:43.034Z,44.65
2019-03-20T07:00:40.888Z,41.45
2019-03-20T07:03:13.494Z,38.02
2019-03-20T07:06:14.114Z,35.32
2019-03-20T07:08:59.396Z,33.04
2019-03-20T07:11:26.858Z,31.05
2019-03-20T07:13:56.071Z,28.88
2019-03-20T07:16:25.196Z,27.90
2019-03-20T07:18:54.354Z,26.67
2019-03-20T07:21:23.483Z,26.01
2019-03-20T07:23:52.622Z,25.01
2019-03-20T07:26:21.789Z,24.33
2019-03-20T07:28:50.927Z,23.80
2019-03-20T07:31:20.038Z,23.35
2019-03-20T07:33:49.201Z,22.58
2019-03-20T07:36:18.411Z,23.07
2019-03-20T07:38:47.521Z,21.26
2019-03-20T07:41:16.675Z,21.26
2019-03-20T07:43:45.800Z,21.32
2019-03-20T07:46:14.937Z,21.31
2019-03-20T07:48:44.080Z,21.78
2019-03-20T07:51:14.394Z,21.80
2019-03-20T07:53:43.560Z,21.77
2019-03-20T07:56:12.681Z,21.71
2019-03-20T07:58:41.886Z,21.53
2019-03-20T08:01:12.340Z,21.62
2019-03-20T08:03:41.485Z,21.59
2019-03-20T08:06:10.741Z,21.59
2019-03-20T08:08:39.858Z,21.01
2019-03-20T08:11:09.168Z,20.98
2019-03-20T08:13:38.264Z,20.91
2019-03-20T08:16:07.428Z,20.39
2019-03-20T08:18:36.577Z,20.36
2019-03-20T08:21:05.822Z,19.59
2019-03-20T08:23:34.951Z,19.39
2019-03-20T08:26:04.200Z,19.31
2019-03-20T08:28:33.359Z,19.59
2019-03-20T08:31:02.506Z,19.18
2019-03-20T08:33:31.647Z,18.96
2019-03-20T08:36:00.775Z,18.66
2019-03-20T08:38:29.933Z,19.18
2019-03-20T08:40:59.077Z,19.14
2019-03-20T08:43:28.214Z,18.37
2019-03-20T08:45:57.456Z,18.37
2019-03-20T08:48:26.597Z,18.65
2019-03-20T08:50:55.737Z,18.97
2019-03-20T08:53:24.859Z,19.27
2019-03-20T08:55:54.023Z,19.23
2019-03-20T08:58:23.178Z,19.20
2019-03-20T09:00:52.319Z,19.46
2019-03-20T09:03:21.482Z,20.21
2019-03-20T09:05:50.719Z,20.17
2019-03-20T09:08:28.932Z,21.43
2019-03-20T09:10:50.796Z,21.28
2019-03-20T09:13:19.927Z,21.07
2019-03-20T09:15:49.081Z,22.30
2019-03-20T09:18:18.219Z,22.20
2019-03-20T09:20:47.353Z,22.20
2019-03-20T09:23:16.470Z,22.67
2019-03-20T09:25:45.610Z,23.90
2019-03-20T09:28:14.995Z,25.07
2019-03-20T09:30:44.139Z,26.09
2019-03-20T09:33:13.291Z,26.91
2019-03-20T09:35:42.424Z,27.54
2019-03-20T09:38:11.529Z,27.95
2019-03-20T09:40:40.653Z,29.23
2019-03-20T09:43:09.832Z,29.97
2019-03-20T09:45:38.997Z,30.94
2019-03-20T09:48:08.135Z,31.21
2019-03-20T09:50:37.449Z,31.77
2019-03-20T09:53:06.592Z,31.93
2019-03-20T09:55:35.719Z,33.00
2019-03-20T09:58:11.567Z,32.84
2019-03-20T10:00:35.690Z,32.96
2019-03-20T10:03:04.821Z,33.28
2019-03-20T10:05:33.941Z,33.30
2019-03-20T10:08:03.097Z,33.63
2019-03-20T10:10:32.216Z,32.82
2019-03-20T10:13:01.323Z,32.48
2019-03-20T10:15:30.469Z,33.24
2019-03-20T10:17:59.620Z,33.07
2019-03-20T10:20:28.764Z,33.38
2019-03-20T10:22:57.908Z,33.60
2019-03-20T10:25:27.012Z,34.50
2019-03-20T10:27:56.162Z,33.79
2019-03-20T10:30:25.468Z,34.36
2019-03-20T10:32:54.619Z,34.20
2019-03-20T10:35:23.795Z,33.87
2019-03-20T10:37:52.923Z,34.36
2019-03-20T10:40:22.081Z,34.88
2019-03-20T10:42:51.194Z,34.78
2019-03-20T10:45:20.416Z,33.83
2019-03-20T10:47:52.545Z,33.86
2019-03-20T10:50:21.541Z,33.82
2019-03-20T10:52:50.821Z,33.82
2019-03-20T10:55:19.990Z,33.37
2019-03-20T10:57:49.126Z,34.20
2019-03-20T11:00:19.743Z,33.87
2019-03-20T11:02:49.078Z,33.58
2019-03-20T11:05:18.779Z,33.92
2019-03-20T11:07:48.026Z,33.59
2019-03-20T11:10:19.663Z,33.53
2019-03-20T11:12:48.799Z,33.36
2019-03-20T11:15:18.087Z,33.26
2019-03-20T11:17:47.325Z,33.86
2019-03-20T11:20:17.250Z,34.85
2019-03-20T11:22:46.589Z,33.71
2019-03-20T11:25:16.997Z,33.60
2019-03-20T11:27:46.125Z,32.37
2019-03-20T11:30:22.563Z,33.01
2019-03-20T11:32:51.801Z,33.15
2019-03-20T11:35:21.181Z,32.73
2019-03-20T11:37:50.313Z,33.82
2019-03-20T11:40:21.939Z,34.42
2019-03-20T11:42:51.086Z,33.57
2019-03-20T11:45:20.404Z,33.88
2019-03-20T11:47:49.520Z,33.37
2019-03-20T11:50:27.264Z,34.33
2019-03-20T11:52:56.411Z,34.29
2019-03-20T11:55:25.542Z,35.26
2019-03-20T11:57:54.702Z,34.92
2019-03-20T12:00:24.182Z,34.91
2019-03-20T12:02:53.340Z,34.08
2019-03-20T12:05:22.514Z,35.26
2019-03-20T12:07:51.659Z,35.54
2019-03-20T12:10:21.817Z,35.82
2019-03-20T12:12:50.970Z,36.49
2019-03-20T12:15:20.170Z,36.71
2019-03-20T12:17:49.354Z,35.88
2019-03-20T12:20:19.319Z,36.77
2019-03-20T12:22:48.789Z,37.31
2019-03-20T12:25:28.078Z,37.07
2019-03-20T12:27:57.274Z,37.71
2019-03-20T12:30:27.686Z,38.51
2019-03-20T12:32:56.811Z,39.42
2019-03-20T12:35:27.357Z,39.65
2019-03-20T12:37:56.526Z,40.12
2019-03-20T12:40:27.333Z,40.17
2019-03-20T12:42:56.885Z,40.53
2019-03-20T12:45:31.073Z,40.81
2019-03-20T12:48:00.203Z,41.12
2019-03-20T12:50:29.315Z,40.94
2019-03-20T12:53:01.394Z,41.01
2019-03-20T12:55:31.079Z,40.92
2019-03-20T12:58:00.533Z,41.04
2019-03-20T13:00:29.685Z,41.01
2019-03-20T13:02:58.800Z,41.51
2019-03-20T13:05:27.921Z,41.74
2019-03-20T13:08:05.309Z,41.93
2019-03-20T13:10:28.065Z,42.08
2019-03-20T13:12:57.198Z,42.24
2019-03-20T13:15:26.542Z,42.13
2019-03-20T13:17:56.394Z,42.40
2019-03-20T13:20:25.854Z,42.55
2019-03-20T13:23:00.888Z,42.95
2019-03-20T13:25:30.052Z,43.17
2019-03-20T13:27:59.207Z,43.03
2019-03-20T13:30:30.963Z,43.19
2019-03-20T13:33:00.094Z,43.31
2019-03-20T13:35:29.292Z,42.73
2019-03-20T13:37:58.412Z,43.02
2019-03-20T13:40:27.776Z,43.03
2019-03-20T13:42:56.935Z,43.08
2019-03-20T13:45:26.238Z,42.60
2019-03-20T13:47:55.369Z,43.83
2019-03-20T13:50:24.529Z,43.29
2019-03-20T13:52:53.661Z,44.17
2019-03-20T13:55:22.941Z,44.20
2019-03-20T13:57:52.055Z,44.48
2019-03-20T14:00:21.893Z,44.50
2019-03-20T14:02:51.269Z,44.72
2019-03-20T14:05:20.517Z,44.87
2019-03-20T14:07:49.815Z,44.97
2019-03-20T14:10:25.131Z,45.07
2019-03-20T14:12:50.933Z,44.91
2019-03-20T14:15:20.196Z,45.15
2019-03-20T14:17:49.381Z,45.51
2019-03-20T14:20:20.793Z,45.45
2019-03-20T14:22:49.933Z,45.01
2019-03-20T14:25:19.157Z,45.55
2019-03-20T14:27:48.341Z,45.75
2019-03-20T14:30:22.233Z,45.75
2019-03-20T14:32:51.392Z,45.65
2019-03-20T14:35:20.592Z,45.18
2019-03-20T14:37:49.826Z,44.62
2019-03-20T14:40:21.054Z,45.02
2019-03-20T14:42:50.291Z,45.12
2019-03-20T14:45:19.429Z,45.63
2019-03-20T14:47:48.547Z,45.42
2019-03-20T14:50:19.712Z,45.30
2019-03-20T14:52:48.982Z,45.11
2019-03-20T14:55:18.179Z,45.08
2019-03-20T14:57:47.463Z,44.70
2019-03-20T15:00:21.825Z,44.65
2019-03-20T15:02:51.195Z,44.33
2019-03-20T15:05:20.391Z,44.54
2019-03-20T15:07:49.511Z,44.85
2019-03-20T15:10:20.113Z,45.04
2019-03-20T15:12:49.429Z,45.13
2019-03-20T15:15:48.474Z,45.09
2019-03-20T15:18:17.598Z,44.91
2019-03-20T15:20:46.790Z,44.99
2019-03-20T15:23:15.893Z,45.31
2019-03-20T15:25:45.030Z,44.93
2019-03-20T15:28:14.149Z,45.16
2019-03-20T15:30:43.309Z,45.14
2019-03-20T15:33:12.488Z,45.86
2019-03-20T15:35:41.645Z,45.93
2019-03-20T15:38:10.802Z,46.25
2019-03-20T15:40:39.940Z,46.24
2019-03-20T15:43:09.100Z,46.29
2019-03-20T15:45:38.240Z,46.42
2019-03-20T15:48:07.376Z,46.60
2019-03-20T15:50:36.532Z,46.66
2019-03-20T15:53:05.862Z,46.93
2019-03-20T15:55:35.131Z,46.91
2019-03-20T15:58:04.668Z,47.09
2019-03-20T16:00:33.878Z,47.07
2019-03-20T16:03:05.797Z,47.38
2019-03-20T16:05:34.936Z,47.30
2019-03-20T16:08:04.246Z,47.43
2019-03-20T16:10:33.426Z,47.88
2019-03-20T16:13:02.790Z,47.99
2019-03-20T16:15:32.059Z,47.76
2019-03-20T16:18:01.207Z,47.81
2019-03-20T16:20:30.391Z,48.09
2019-03-20T16:23:00.530Z,48.23
2019-03-20T16:25:29.648Z,48.39
2019-03-20T16:27:58.847Z,48.18
2019-03-20T16:30:28.051Z,48.31
2019-03-20T16:32:57.359Z,48.17
2019-03-20T16:35:26.516Z,48.20
2019-03-20T16:37:55.690Z,48.55
2019-03-20T16:40:25.208Z,48.78
2019-03-20T16:42:54.398Z,48.90
2019-03-20T16:45:25.804Z,49.48
2019-03-20T16:47:54.949Z,49.26
2019-03-20T16:50:24.112Z,49.35
2019-03-20T16:52:53.332Z,49.20
2019-03-20T16:55:22.465Z,49.35
2019-03-20T16:57:51.700Z,49.58
2019-03-20T17:00:25.493Z,49.64
2019-03-20T17:02:54.673Z,49.76
2019-03-20T17:05:24.128Z,49.93
2019-03-20T17:07:53.301Z,49.90
2019-03-20T17:10:27.404Z,49.92
2019-03-20T17:12:56.789Z,49.87
2019-03-20T17:15:26.604Z,49.82
2019-03-20T17:17:55.823Z,50.10
2019-03-20T17:20:25.245Z,50.53
2019-03-20T17:22:54.612Z,50.62
2019-03-20T17:25:23.741Z,50.62
2019-03-20T17:27:53.114Z,50.86
2019-03-20T17:30:30.203Z,51.02
2019-03-20T17:32:59.797Z,51.32
2019-03-20T17:35:29.046Z,51.41
2019-03-20T17:37:58.383Z,51.63
2019-03-20T17:40:28.285Z,51.71
2019-03-20T17:42:57.660Z,51.86
2019-03-20T17:45:26.912Z,52.22
2019-03-20T17:47:56.439Z,52.42
2019-03-20T17:50:27.177Z,52.53
2019-03-20T17:52:56.456Z,52.64
2019-03-20T17:55:25.759Z,52.90
2019-03-20T17:57:54.935Z,53.24
2019-03-20T18:00:31.811Z,53.55
2019-03-20T18:03:01.021Z,53.94
2019-03-20T18:05:30.163Z,54.22
2019-03-20T18:07:59.873Z,54.42
2019-03-20T18:10:29.031Z,54.85
2019-03-20T18:12:58.212Z,55.01
2019-03-20T18:15:27.366Z,55.33
2019-03-20T18:17:56.798Z,55.73
2019-03-20T18:20:26.254Z,55.99
2019-03-20T18:22:55.479Z,56.18
2019-03-20T18:25:24.874Z,56.48
2019-03-20T18:27:54.019Z,56.48
2019-03-20T18:30:23.925Z,56.58
2019-03-20T18:32:53.197Z,56.65
2019-03-20T18:35:22.620Z,56.68
2019-03-20T18:37:51.912Z,56.92
2019-03-20T18:40:21.141Z,57.44
2019-03-20T18:42:50.388Z,57.89
2019-03-20T18:45:20.310Z,58.15
2019-03-20T18:47:49.960Z,58.25
2019-03-20T18:50:19.528Z,58.34
2019-03-20T18:52:49.139Z,58.50
2019-03-20T18:55:18.581Z,58.76
2019-03-20T18:57:48.218Z,58.94
2019-03-20T19:00:24.882Z,58.98
2019-03-20T19:02:55.484Z,59.05
2019-03-20T19:05:31.986Z,59.24
2019-03-20T19:08:01.371Z,59.32
2019-03-20T19:10:31.341Z,59.26
2019-03-20T19:13:00.809Z,59.12
2019-03-20T19:15:30.218Z,59.04
2019-03-20T19:17:59.618Z,59.13
2019-03-20T19:20:28.840Z,59.32
2019-03-20T19:22:58.045Z,59.35
2019-03-20T19:25:27.511Z,59.46
2019-03-20T19:27:56.916Z,59.56
2019-03-20T19:30:26.378Z,59.64
2019-03-20T19:32:55.952Z,60.06
2019-03-20T19:35:25.166Z,60.43
2019-03-20T19:37:54.417Z,60.63
2019-03-20T19:40:23.933Z,61.13
2019-03-20T19:42:53.181Z,61.26
2019-03-20T19:45:22.821Z,61.29
2019-03-20T19:47:52.210Z,61.49
2019-03-20T19:50:22.019Z,61.63
2019-03-20T19:52:51.531Z,61.92
2019-03-20T19:55:20.875Z,62.26
2019-03-20T19:57:53.328Z,62.43
2019-03-20T20:00:23.067Z,62.52
2019-03-20T20:02:52.991Z,62.69
2019-03-20T20:05:22.453Z,62.78
2019-03-20T20:07:52.121Z,62.80
2019-03-20T20:10:21.367Z,62.84
2019-03-20T20:12:50.562Z,63.02
2019-03-20T20:15:21.455Z,63.06
2019-03-20T20:17:50.914Z,63.10
2019-03-20T20:20:20.714Z,63.26
2019-03-20T20:22:49.950Z,63.40
2019-03-20T20:25:19.211Z,63.76
2019-03-20T20:27:48.636Z,63.94
2019-03-20T20:30:18.287Z,64.11
2019-03-20T20:32:47.692Z,64.22
2019-03-20T20:35:16.873Z,64.36
2019-03-20T20:37:46.127Z,64.40
2019-03-20T20:40:16.620Z,64.58
2019-03-20T20:42:45.777Z,64.89
2019-03-20T20:45:15.075Z,64.94
2019-03-20T20:47:44.522Z,65.09
2019-03-20T20:50:13.858Z,65.48
2019-03-20T20:52:43.056Z,65.41
2019-03-20T20:55:12.771Z,65.27
2019-03-20T20:57:42.025Z,65.28
2019-03-20T21:00:20.676Z,65.23
2019-03-20T21:02:49.799Z,65.16
2019-03-20T21:05:18.961Z,65.17
2019-03-20T21:07:48.148Z,65.19
2019-03-20T21:10:17.356Z,65.51
2019-03-20T21:12:55.499Z,65.51
2019-03-20T21:15:45.677Z,65.53
2019-03-20T21:18:55.681Z,65.58
2019-03-20T21:21:28.936Z,65.66
2019-03-20T21:24:30.345Z,65.65
2019-03-20T21:27:43.423Z,65.65
2019-03-20T21:30:52.374Z,65.70
2019-03-20T21:33:36.191Z,66.21
2019-03-20T21:36:36.416Z,66.22
2019-03-20T21:39:07.832Z,66.20
2019-03-20T21:42:31.350Z,66.18
2019-03-20T21:45:29.545Z,66.26
2019-03-20T21:47:59.247Z,66.51
2019-03-20T21:51:06.501Z,66.81
2019-03-20T21:54:18.741Z,67.07
2019-03-20T21:57:25.916Z,67.16
2019-03-20T22:00:54.283Z,67.14
2019-03-20T22:03:24.006Z,67.00
2019-03-20T22:06:32.334Z,67.04
2019-03-20T22:09:07.873Z,67.06
2019-03-20T22:12:12.794Z,67.03
2019-03-20T22:14:43.732Z,67.08
2019-03-20T22:18:07.660Z,67.47
2019-03-20T22:21:04.547Z,67.56
2019-03-20T22:23:58.441Z,67.53
2019-03-20T22:27:08.868Z,67.64
2019-03-20T22:29:38.528Z,67.72
2019-03-20T22:32:53.549Z,67.61
2019-03-20T22:35:46.538Z,67.78
2019-03-20T22:38:52.384Z,68.02
2019-03-20T22:41:36.021Z,68.14
2019-03-20T22:44:07.035Z,68.10
2019-03-20T22:47:31.959Z,68.01
2019-03-20T22:50:19.189Z,68.02
2019-03-20T22:53:14.105Z,68.00
2019-03-20T22:56:40.361Z,67.96
2019-03-20T22:59:10.108Z,68.23
2019-03-20T23:02:29.524Z,68.64
2019-03-20T23:05:00.458Z,68.69
2019-03-20T23:07:30.448Z,68.83
2019-03-20T23:10:00.161Z,69.04
2019-03-20T23:12:30.050Z,69.02
2019-03-20T23:14:59.760Z,69.14
2019-03-20T23:17:29.497Z,69.16
2019-03-20T23:19:59.406Z,69.36
2019-03-20T23:22:29.206Z,69.46
2019-03-20T23:24:59.059Z,69.61
2019-03-20T23:27:30.814Z,70.04
2019-03-20T23:30:01.018Z,70.08
2019-03-20T23:32:31.110Z,70.15
2019-03-20T23:35:00.768Z,69.93
2019-03-20T23:37:30.553Z,69.81
2019-03-20T23:40:00.361Z,69.68
2019-03-20T23:42:30.452Z,69.75
2019-03-20T23:45:00.298Z,69.69
2019-03-20T23:47:44.791Z,69.69
2019-03-20T23:50:14.501Z,69.58
2019-03-20T23:52:44.182Z,69.56
2019-03-20T23:55:13.907Z,69.59
2019-03-20T23:57:43.665Z,69.44
